sensor_id;sensor_type;location;lat;lon;timestamp;pressure;altitude;pressure_sealevel;temperature;humidity
32642;BME280;19323;56.072;9.698;2022-09-09T00:03:59;100245.06;;;29.09;35.68
32642;BME280;19323;56.072;9.698;2022-09-09T00:06:42;100238.84;;;29.09;35.55
32642;BME280;19323;56.072;9.698;2022-09-09T00:09:17;100243.19;;;29.10;35.70
32642;BME280;19323;56.072;9.698;2022-09-09T00:14:30;100225.53;;;29.07;35.88
32642;BME280;19323;56.072;9.698;2022-09-09T00:17:09;100229.03;;;29.08;35.59
32642;BME280;19323;56.072;9.698;2022-09-09T00:22:19;100226.34;;;29.08;35.69
32642;BME280;19323;56.072;9.698;2022-09-09T00:24:59;100227.38;;;29.07;35.72
32642;BME280;19323;56.072;9.698;2022-09-09T00:27:40;100215.78;;;29.06;35.56
32642;BME280;19323;56.072;9.698;2022-09-09T00:32:40;100222.00;;;29.07;35.50
32642;BME280;19323;56.072;9.698;2022-09-09T00:37:37;100209.53;;;29.06;35.78
32642;BME280;19323;56.072;9.698;2022-09-09T00:40:18;100201.38;;;28.99;35.79
32642;BME280;19323;56.072;9.698;2022-09-09T00:42:52;100213.09;;;29.06;35.80
32642;BME280;19323;56.072;9.698;2022-09-09T00:51:30;100204.34;;;29.04;35.44
32642;BME280;19323;56.072;9.698;2022-09-09T00:57:04;100196.44;;;29.03;35.69
32642;BME280;19323;56.072;9.698;2022-09-09T00:59:48;100201.84;;;29.03;35.89
32642;BME280;19323;56.072;9.698;2022-09-09T01:02:36;100204.53;;;29.03;35.64
32642;BME280;19323;56.072;9.698;2022-09-09T01:05:12;100186.25;;;28.98;35.82
32642;BME280;19323;56.072;9.698;2022-09-09T01:07:44;100169.63;;;28.94;35.70
32642;BME280;19323;56.072;9.698;2022-09-09T01:10:29;100194.81;;;29.02;35.90
32642;BME280;19323;56.072;9.698;2022-09-09T01:13:02;100186.72;;;29.02;36.00
32642;BME280;19323;56.072;9.698;2022-09-09T01:15:32;100152.06;;;28.77;36.02
32642;BME280;19323;56.072;9.698;2022-09-09T01:18:04;100185.84;;;29.01;35.84
32642;BME280;19323;56.072;9.698;2022-09-09T01:23:36;100175.28;;;29.00;35.82
32642;BME280;19323;56.072;9.698;2022-09-09T01:26:12;100170.03;;;28.91;35.89
32642;BME280;19323;56.072;9.698;2022-09-09T01:28:47;100188.78;;;29.00;35.83
32642;BME280;19323;56.072;9.698;2022-09-09T01:31:21;100181.69;;;28.99;36.00
32642;BME280;19323;56.072;9.698;2022-09-09T01:33:48;100187.09;;;28.99;35.92
32642;BME280;19323;56.072;9.698;2022-09-09T01:36:31;100141.28;;;28.77;35.73
32642;BME280;19323;56.072;9.698;2022-09-09T01:38:59;100180.03;;;28.98;35.87
32642;BME280;19323;56.072;9.698;2022-09-09T01:41:26;100160.47;;;28.89;36.00
32642;BME280;19323;56.072;9.698;2022-09-09T01:43:54;100167.72;;;28.88;35.92
32642;BME280;19323;56.072;9.698;2022-09-09T01:46:22;100152.97;;;28.84;35.93
32642;BME280;19323;56.072;9.698;2022-09-09T01:48:53;100168.16;;;28.92;35.82
32642;BME280;19323;56.072;9.698;2022-09-09T01:51:21;100167.97;;;28.93;35.67
32642;BME280;19323;56.072;9.698;2022-09-09T01:53:48;100156.94;;;28.88;35.97
32642;BME280;19323;56.072;9.698;2022-09-09T01:56:34;100164.25;;;28.94;35.83
32642;BME280;19323;56.072;9.698;2022-09-09T02:02:10;100160.91;;;28.92;35.95
32642;BME280;19323;56.072;9.698;2022-09-09T02:05:20;100163.59;;;28.92;35.69
32642;BME280;19323;56.072;9.698;2022-09-09T02:07:48;100158.41;;;28.91;35.76
32642;BME280;19323;56.072;9.698;2022-09-09T02:10:20;100161.94;;;28.91;35.87
32642;BME280;19323;56.072;9.698;2022-09-09T02:12:52;100135.91;;;28.77;35.86
32642;BME280;19323;56.072;9.698;2022-09-09T02:15:46;100147.59;;;28.84;35.91
32642;BME280;19323;56.072;9.698;2022-09-09T02:18:21;100148.22;;;28.86;35.75
32642;BME280;19323;56.072;9.698;2022-09-09T02:20:51;100149.47;;;28.90;35.87
32642;BME280;19323;56.072;9.698;2022-09-09T02:23:20;100148.47;;;28.91;35.70
32642;BME280;19323;56.072;9.698;2022-09-09T02:25:48;100144.09;;;28.90;35.98
32642;BME280;19323;56.072;9.698;2022-09-09T02:28:15;100138.47;;;28.85;35.83
32642;BME280;19323;56.072;9.698;2022-09-09T02:30:45;100133.47;;;28.82;35.67
32642;BME280;19323;56.072;9.698;2022-09-09T02:33:13;100131.59;;;28.83;35.77
32642;BME280;19323;56.072;9.698;2022-09-09T02:35:42;100150.53;;;28.89;35.75
32642;BME280;19323;56.072;9.698;2022-09-09T02:38:12;100139.56;;;28.91;35.70
32642;BME280;19323;56.072;9.698;2022-09-09T02:40:40;100128.09;;;28.82;35.60
32642;BME280;19323;56.072;9.698;2022-09-09T02:43:06;100143.06;;;28.91;35.52
32642;BME280;19323;56.072;9.698;2022-09-09T02:45:45;100133.13;;;28.92;35.78
32642;BME280;19323;56.072;9.698;2022-09-09T02:48:27;100136.00;;;28.90;35.56
32642;BME280;19323;56.072;9.698;2022-09-09T02:51:08;100133.31;;;28.90;35.68
32642;BME280;19323;56.072;9.698;2022-09-09T02:53:48;100129.78;;;28.90;35.45
32642;BME280;19323;56.072;9.698;2022-09-09T02:56:20;100126.22;;;28.83;35.90
32642;BME280;19323;56.072;9.698;2022-09-09T02:58:48;100128.13;;;28.89;35.65
32642;BME280;19323;56.072;9.698;2022-09-09T03:01:17;100122.28;;;28.85;35.53
32642;BME280;19323;56.072;9.698;2022-09-09T03:03:44;100133.53;;;28.89;35.91
32642;BME280;19323;56.072;9.698;2022-09-09T03:06:12;100137.22;;;28.88;35.66
32642;BME280;19323;56.072;9.698;2022-09-09T03:08:39;100128.13;;;28.89;35.21
32642;BME280;19323;56.072;9.698;2022-09-09T03:11:06;100129.97;;;28.88;35.40
32642;BME280;19323;56.072;9.698;2022-09-09T03:13:33;100131.00;;;28.87;35.65
32642;BME280;19323;56.072;9.698;2022-09-09T03:16:00;100132.88;;;28.87;35.14
32642;BME280;19323;56.072;9.698;2022-09-09T03:18:26;100131.19;;;28.86;35.61
32642;BME280;19323;56.072;9.698;2022-09-09T03:20:54;100130.19;;;28.87;35.60
32642;BME280;19323;56.072;9.698;2022-09-09T03:23:20;100131.84;;;28.88;35.58
32642;BME280;19323;56.072;9.698;2022-09-09T03:25:49;100135.75;;;28.85;35.74
32642;BME280;19323;56.072;9.698;2022-09-09T03:28:16;100121.84;;;28.82;35.72
32642;BME280;19323;56.072;9.698;2022-09-09T03:30:42;100122.25;;;28.79;35.28
32642;BME280;19323;56.072;9.698;2022-09-09T03:33:09;100129.38;;;28.86;35.51
32642;BME280;19323;56.072;9.698;2022-09-09T03:35:35;100120.00;;;28.82;35.40
32642;BME280;19323;56.072;9.698;2022-09-09T03:38:02;100118.31;;;28.81;35.63
32642;BME280;19323;56.072;9.698;2022-09-09T03:40:28;100126.66;;;28.86;35.55
32642;BME280;19323;56.072;9.698;2022-09-09T03:42:55;100121.28;;;28.86;35.66
32642;BME280;19323;56.072;9.698;2022-09-09T03:45:21;100120.41;;;28.86;35.51
32642;BME280;19323;56.072;9.698;2022-09-09T03:47:48;100123.13;;;28.86;35.88
32642;BME280;19323;56.072;9.698;2022-09-09T03:50:15;100118.78;;;28.85;35.45
32642;BME280;19323;56.072;9.698;2022-09-09T03:52:42;100114.22;;;28.85;35.47
32642;BME280;19323;56.072;9.698;2022-09-09T03:55:09;100110.22;;;28.81;35.44
32642;BME280;19323;56.072;9.698;2022-09-09T03:57:35;100103.19;;;28.80;35.80
32642;BME280;19323;56.072;9.698;2022-09-09T04:00:06;100109.84;;;28.84;35.67
32642;BME280;19323;56.072;9.698;2022-09-09T04:02:34;100088.81;;;28.73;35.65
32642;BME280;19323;56.072;9.698;2022-09-09T04:05:00;100106.31;;;28.84;35.64
32642;BME280;19323;56.072;9.698;2022-09-09T04:07:27;100105.47;;;28.83;35.64
32642;BME280;19323;56.072;9.698;2022-09-09T04:09:54;100095.28;;;28.79;35.96
32642;BME280;19323;56.072;9.698;2022-09-09T04:12:20;100083.88;;;28.76;35.80
32642;BME280;19323;56.072;9.698;2022-09-09T04:14:48;100099.06;;;28.84;35.77
32642;BME280;19323;56.072;9.698;2022-09-09T04:17:15;100091.38;;;28.81;35.94
32642;BME280;19323;56.072;9.698;2022-09-09T04:19:41;100099.06;;;28.84;35.81
32642;BME280;19323;56.072;9.698;2022-09-09T04:22:08;100093.03;;;28.82;35.77
32642;BME280;19323;56.072;9.698;2022-09-09T04:24:35;100097.59;;;28.82;35.84
32642;BME280;19323;56.072;9.698;2022-09-09T04:27:02;100084.91;;;28.75;35.79
32642;BME280;19323;56.072;9.698;2022-09-09T04:29:28;100098.63;;;28.81;35.96
32642;BME280;19323;56.072;9.698;2022-09-09T04:31:55;100093.03;;;28.82;35.72
32642;BME280;19323;56.072;9.698;2022-09-09T04:34:21;100092.19;;;28.82;35.95
32642;BME280;19323;56.072;9.698;2022-09-09T04:36:47;100092.41;;;28.80;35.68
32642;BME280;19323;56.072;9.698;2022-09-09T04:39:14;100097.59;;;28.82;36.39
32642;BME280;19323;56.072;9.698;2022-09-09T04:41:40;100090.34;;;28.82;36.10
32642;BME280;19323;56.072;9.698;2022-09-09T04:44:07;100087.84;;;28.81;36.23
32642;BME280;19323;56.072;9.698;2022-09-09T04:46:33;100092.19;;;28.82;36.04
32642;BME280;19323;56.072;9.698;2022-09-09T04:49:02;100094.88;;;28.82;35.77
32642;BME280;19323;56.072;9.698;2022-09-09T04:51:29;100091.38;;;28.81;36.11
32642;BME280;19323;56.072;9.698;2022-09-09T04:53:57;100078.66;;;28.75;35.87
32642;BME280;19323;56.072;9.698;2022-09-09T04:56:23;100080.34;;;28.76;36.02
32642;BME280;19323;56.072;9.698;2022-09-09T04:58:53;100085.97;;;28.81;36.18
32642;BME280;19323;56.072;9.698;2022-09-09T05:01:21;100093.03;;;28.82;36.25
32642;BME280;19323;56.072;9.698;2022-09-09T05:03:48;100081.38;;;28.75;36.26
32642;BME280;19323;56.072;9.698;2022-09-09T05:06:17;100089.50;;;28.82;36.22
32642;BME280;19323;56.072;9.698;2022-09-09T05:08:44;100094.69;;;28.83;36.44
32642;BME280;19323;56.072;9.698;2022-09-09T05:11:19;100092.19;;;28.82;36.31
32642;BME280;19323;56.072;9.698;2022-09-09T05:13:46;100089.50;;;28.82;36.54
32642;BME280;19323;56.072;9.698;2022-09-09T05:16:13;100094.06;;;28.81;36.63
32642;BME280;19323;56.072;9.698;2022-09-09T05:18:40;100094.06;;;28.81;36.79
32642;BME280;19323;56.072;9.698;2022-09-09T05:21:09;100077.84;;;28.74;36.74
32642;BME280;19323;56.072;9.698;2022-09-09T05:23:36;100073.69;;;28.72;36.83
32642;BME280;19323;56.072;9.698;2022-09-09T05:26:04;100091.38;;;28.81;36.88
32642;BME280;19323;56.072;9.698;2022-09-09T05:28:33;100088.66;;;28.81;37.17
32642;BME280;19323;56.072;9.698;2022-09-09T05:31:06;100083.28;;;28.81;36.80
32642;BME280;19323;56.072;9.698;2022-09-09T05:33:35;100071.63;;;28.74;36.57
32642;BME280;19323;56.072;9.698;2022-09-09T05:36:06;100087.84;;;28.81;37.03
32642;BME280;19323;56.072;9.698;2022-09-09T05:38:34;100085.34;;;28.79;37.11
32642;BME280;19323;56.072;9.698;2022-09-09T05:41:03;100092.41;;;28.80;37.26
32642;BME280;19323;56.072;9.698;2022-09-09T05:43:30;100094.25;;;28.80;37.09
32642;BME280;19323;56.072;9.698;2022-09-09T05:46:04;100089.72;;;28.80;37.09
32642;BME280;19323;56.072;9.698;2022-09-09T05:48:32;100097.81;;;28.80;36.93
32642;BME280;19323;56.072;9.698;2022-09-09T05:51:00;100097.81;;;28.80;36.92
32642;BME280;19323;56.072;9.698;2022-09-09T05:53:27;100093.22;;;28.81;36.92
32642;BME280;19323;56.072;9.698;2022-09-09T05:56:04;100091.38;;;28.81;37.02
32642;BME280;19323;56.072;9.698;2022-09-09T05:58:32;100097.81;;;28.80;37.13
32642;BME280;19323;56.072;9.698;2022-09-09T06:01:12;100097.16;;;28.78;37.11
32642;BME280;19323;56.072;9.698;2022-09-09T06:03:41;100098.81;;;28.79;36.84
32642;BME280;19323;56.072;9.698;2022-09-09T06:06:10;100098.81;;;28.79;36.93
32642;BME280;19323;56.072;9.698;2022-09-09T06:08:38;100091.56;;;28.80;36.92
32642;BME280;19323;56.072;9.698;2022-09-09T06:11:08;100093.41;;;28.79;36.76
32642;BME280;19323;56.072;9.698;2022-09-09T06:13:35;100101.50;;;28.79;36.92
32642;BME280;19323;56.072;9.698;2022-09-09T06:16:03;100102.34;;;28.80;36.61
32642;BME280;19323;56.072;9.698;2022-09-09T06:18:30;100087.78;;;28.74;36.64
32642;BME280;19323;56.072;9.698;2022-09-09T06:20:58;100088.03;;;28.79;36.72
32642;BME280;19323;56.072;9.698;2022-09-09T06:23:27;100088.63;;;28.74;36.59
32642;BME280;19323;56.072;9.698;2022-09-09T06:26:13;100095.28;;;28.79;36.74
32642;BME280;19323;56.072;9.698;2022-09-09T06:28:40;100089.44;;;28.75;36.84
32642;BME280;19323;56.072;9.698;2022-09-09T06:31:10;100099.84;;;28.78;36.42
32642;BME280;19323;56.072;9.698;2022-09-09T06:33:38;100100.69;;;28.79;36.32
32642;BME280;19323;56.072;9.698;2022-09-09T06:36:13;100104.19;;;28.79;36.62
32642;BME280;19323;56.072;9.698;2022-09-09T06:38:41;100095.06;;;28.73;36.65
32642;BME280;19323;56.072;9.698;2022-09-09T06:41:09;100099.22;;;28.76;36.67
32642;BME280;19323;56.072;9.698;2022-09-09T06:43:36;100093.38;;;28.72;36.46
32642;BME280;19323;56.072;9.698;2022-09-09T06:46:05;100088.53;;;28.61;36.76
32642;BME280;19323;56.072;9.698;2022-09-09T06:48:32;100107.50;;;28.74;36.45
32642;BME280;19323;56.072;9.698;2022-09-09T06:51:07;100110.63;;;28.78;36.33
32642;BME280;19323;56.072;9.698;2022-09-09T06:53:35;100106.06;;;28.79;36.50
32642;BME280;19323;56.072;9.698;2022-09-09T06:56:18;100102.75;;;28.76;36.47
32642;BME280;19323;56.072;9.698;2022-09-09T06:58:45;100098.56;;;28.74;36.61
32642;BME280;19323;56.072;9.698;2022-09-09T07:01:15;100096.06;;;28.72;36.42
32642;BME280;19323;56.072;9.698;2022-09-09T07:03:44;100097.34;;;28.76;36.36
32642;BME280;19323;56.072;9.698;2022-09-09T07:06:19;100104.59;;;28.76;36.29
32642;BME280;19323;56.072;9.698;2022-09-09T07:08:51;100096.53;;;28.76;36.26
32642;BME280;19323;56.072;9.698;2022-09-09T07:11:24;100099.22;;;28.76;36.36
32642;BME280;19323;56.072;9.698;2022-09-09T07:13:52;100109.16;;;28.75;36.39
32642;BME280;19323;56.072;9.698;2022-09-09T07:16:21;100108.13;;;28.76;36.34
32642;BME280;19323;56.072;9.698;2022-09-09T07:18:50;100116.41;;;28.75;36.38
32642;BME280;19323;56.072;9.698;2022-09-09T07:21:18;100121.78;;;28.75;36.42
32642;BME280;19323;56.072;9.698;2022-09-09T07:23:45;100114.56;;;28.75;36.17
32642;BME280;19323;56.072;9.698;2022-09-09T07:26:16;100111.88;;;28.75;36.13
32642;BME280;19323;56.072;9.698;2022-09-09T07:28:46;100111.00;;;28.75;36.43
32642;BME280;19323;56.072;9.698;2022-09-09T07:31:18;100120.13;;;28.74;36.22
32642;BME280;19323;56.072;9.698;2022-09-09T07:33:47;100115.13;;;28.71;36.17
32642;BME280;19323;56.072;9.698;2022-09-09T07:36:18;100120.13;;;28.74;36.15
32642;BME280;19323;56.072;9.698;2022-09-09T07:38:53;100118.44;;;28.73;36.26
32642;BME280;19323;56.072;9.698;2022-09-09T07:41:23;100125.53;;;28.74;36.38
32642;BME280;19323;56.072;9.698;2022-09-09T07:43:51;100120.31;;;28.72;36.22
32642;BME280;19323;56.072;9.698;2022-09-09T07:46:21;100114.09;;;28.72;36.20
32642;BME280;19323;56.072;9.698;2022-09-09T07:48:52;100104.28;;;28.64;36.27
32642;BME280;19323;56.072;9.698;2022-09-09T07:51:21;100121.16;;;28.73;36.27
32642;BME280;19323;56.072;9.698;2022-09-09T07:53:52;100124.88;;;28.72;36.14
32642;BME280;19323;56.072;9.698;2022-09-09T07:56:19;100118.41;;;28.66;36.46
32642;BME280;19323;56.072;9.698;2022-09-09T07:58:48;100104.06;;;28.59;36.14
32642;BME280;19323;56.072;9.698;2022-09-09T08:01:16;100133.78;;;28.72;36.21
32642;BME280;19323;56.072;9.698;2022-09-09T08:03:52;100133.78;;;28.72;36.16
32642;BME280;19323;56.072;9.698;2022-09-09T08:06:22;100132.97;;;28.72;36.42
32642;BME280;19323;56.072;9.698;2022-09-09T08:08:50;100138.34;;;28.72;36.27
32642;BME280;19323;56.072;9.698;2022-09-09T08:11:17;100102.72;;;28.48;36.11
32642;BME280;19323;56.072;9.698;2022-09-09T08:13:44;100142.06;;;28.71;36.28
32642;BME280;19323;56.072;9.698;2022-09-09T08:16:16;100142.06;;;28.71;36.14
32642;BME280;19323;56.072;9.698;2022-09-09T08:18:43;100142.91;;;28.71;36.29
32642;BME280;19323;56.072;9.698;2022-09-09T08:21:13;100148.31;;;28.71;36.14
32642;BME280;19323;56.072;9.698;2022-09-09T08:23:41;100149.31;;;28.70;36.11
32642;BME280;19323;56.072;9.698;2022-09-09T08:26:15;100150.16;;;28.71;36.17
32642;BME280;19323;56.072;9.698;2022-09-09T08:28:43;100152.84;;;28.71;36.12
32642;BME280;19323;56.072;9.698;2022-09-09T08:31:15;100148.50;;;28.70;36.29
32642;BME280;19323;56.072;9.698;2022-09-09T08:33:43;100147.84;;;28.68;36.01
32642;BME280;19323;56.072;9.698;2022-09-09T08:36:15;100127.22;;;28.53;36.26
32642;BME280;19323;56.072;9.698;2022-09-09T08:38:43;100148.50;;;28.70;36.10
32642;BME280;19323;56.072;9.698;2022-09-09T08:41:32;100152.00;;;28.70;35.99
32642;BME280;19323;56.072;9.698;2022-09-09T08:46:54;100158.22;;;28.71;35.93
32642;BME280;19323;56.072;9.698;2022-09-09T08:52:19;100137.47;;;28.65;36.05
32642;BME280;19323;56.072;9.698;2022-09-09T08:54:48;100141.19;;;28.64;36.04
32642;BME280;19323;56.072;9.698;2022-09-09T08:57:26;100153.88;;;28.70;36.04
32642;BME280;19323;56.072;9.698;2022-09-09T08:59:54;100164.25;;;28.73;36.25
32642;BME280;19323;56.072;9.698;2022-09-09T09:02:33;100154.94;;;28.69;36.23
32642;BME280;19323;56.072;9.698;2022-09-09T09:05:28;100150.94;;;28.65;36.19
32642;BME280;19323;56.072;9.698;2022-09-09T09:08:12;100167.81;;;28.73;36.27
32642;BME280;19323;56.072;9.698;2022-09-09T09:13:29;100177.75;;;28.73;36.34
32642;BME280;19323;56.072;9.698;2022-09-09T09:16:23;100183.13;;;28.73;36.11
32642;BME280;19323;56.072;9.698;2022-09-09T09:18:53;100181.47;;;28.72;36.12
32642;BME280;19323;56.072;9.698;2022-09-09T09:23:59;100183.34;;;28.71;36.12
32642;BME280;19323;56.072;9.698;2022-09-09T09:26:31;100185.19;;;28.71;36.22
32642;BME280;19323;56.072;9.698;2022-09-09T09:29:03;100164.78;;;28.62;36.40
32642;BME280;19323;56.072;9.698;2022-09-09T09:31:35;100178.13;;;28.70;36.15
32642;BME280;19323;56.072;9.698;2022-09-09T09:34:01;100191.22;;;28.73;35.90
32642;BME280;19323;56.072;9.698;2022-09-09T09:36:40;100188.53;;;28.73;35.99
32642;BME280;19323;56.072;9.698;2022-09-09T09:39:07;100184.81;;;28.74;36.42
32642;BME280;19323;56.072;9.698;2022-09-09T09:41:56;100190.19;;;28.74;36.14
32642;BME280;19323;56.072;9.698;2022-09-09T09:44:27;100191.03;;;28.74;36.15
32642;BME280;19323;56.072;9.698;2022-09-09T09:49:33;100201.63;;;28.76;36.25
32642;BME280;19323;56.072;9.698;2022-09-09T09:52:03;100200.81;;;28.75;35.89
32642;BME280;19323;56.072;9.698;2022-09-09T09:54:33;100199.75;;;28.76;36.10
32642;BME280;19323;56.072;9.698;2022-09-09T09:57:10;100199.75;;;28.76;36.18
32642;BME280;19323;56.072;9.698;2022-09-09T09:59:37;100196.88;;;28.78;36.28
32642;BME280;19323;56.072;9.698;2022-09-09T10:04:39;100203.91;;;28.79;36.36
32642;BME280;19323;56.072;9.698;2022-09-09T10:07:19;100203.91;;;28.79;36.13
32642;BME280;19323;56.072;9.698;2022-09-09T10:09:53;100186.22;;;28.70;35.98
32642;BME280;19323;56.072;9.698;2022-09-09T10:12:43;100204.56;;;28.81;36.41
32642;BME280;19323;56.072;9.698;2022-09-09T10:15:31;100208.94;;;28.82;35.82
32642;BME280;19323;56.072;9.698;2022-09-09T10:21:24;100201.03;;;28.81;36.44
32642;BME280;19323;56.072;9.698;2022-09-09T10:37:44;100219.31;;;28.85;36.22
32642;BME280;19323;56.072;9.698;2022-09-09T10:42:47;100221.19;;;28.85;36.08
32642;BME280;19323;56.072;9.698;2022-09-09T10:48:31;100221.00;;;28.86;36.17
32642;BME280;19323;56.072;9.698;2022-09-09T10:51:23;100218.31;;;28.86;36.04
32642;BME280;19323;56.072;9.698;2022-09-09T10:54:33;100217.28;;;28.87;36.37
32642;BME280;19323;56.072;9.698;2022-09-09T10:57:17;100207.25;;;28.81;36.22
32642;BME280;19323;56.072;9.698;2022-09-09T10:59:50;100224.31;;;28.88;36.41
32642;BME280;19323;56.072;9.698;2022-09-09T11:02:29;100225.16;;;28.89;36.42
32642;BME280;19323;56.072;9.698;2022-09-09T11:05:04;100231.38;;;28.89;36.60
32642;BME280;19323;56.072;9.698;2022-09-09T11:07:38;100229.34;;;28.91;36.33
32642;BME280;19323;56.072;9.698;2022-09-09T11:10:16;100203.09;;;28.79;36.79
32642;BME280;19323;56.072;9.698;2022-09-09T11:12:46;100227.28;;;28.93;36.69
32642;BME280;19323;56.072;9.698;2022-09-09T11:15:26;100228.94;;;28.94;36.62
32642;BME280;19323;56.072;9.698;2022-09-09T11:18:01;100241.41;;;28.95;36.72
32642;BME280;19323;56.072;9.698;2022-09-09T11:20:27;100231.00;;;28.92;36.61
32642;BME280;19323;56.072;9.698;2022-09-09T11:23:00;100232.91;;;28.99;36.63
32642;BME280;19323;56.072;9.698;2022-09-09T11:25:36;100226.63;;;28.91;36.85
32642;BME280;19323;56.072;9.698;2022-09-09T11:34:20;100256.81;;;29.02;37.05
32642;BME280;19323;56.072;9.698;2022-09-09T11:37:05;100248.50;;;29.03;36.91
32642;BME280;19323;56.072;9.698;2022-09-09T11:42:47;100249.78;;;29.07;36.96
32642;BME280;19323;56.072;9.698;2022-09-09T11:45:24;100256.69;;;29.10;37.11
32642;BME280;19323;56.072;9.698;2022-09-09T11:47:56;100255.66;;;29.11;37.06
32642;BME280;19323;56.072;9.698;2022-09-09T11:52:50;100258.38;;;29.11;36.94
32642;BME280;19323;56.072;9.698;2022-09-09T11:55:25;100254.03;;;29.16;36.86
32642;BME280;19323;56.072;9.698;2022-09-09T11:58:00;100260.06;;;29.19;37.00
32642;BME280;19323;56.072;9.698;2022-09-09T12:00:32;100262.59;;;29.20;36.79
32642;BME280;19323;56.072;9.698;2022-09-09T12:03:00;100261.94;;;29.18;36.57
32642;BME280;19323;56.072;9.698;2022-09-09T12:05:55;100273.19;;;29.22;36.61
32642;BME280;19323;56.072;9.698;2022-09-09T12:08:27;100274.84;;;29.23;36.38
32642;BME280;19323;56.072;9.698;2022-09-09T12:10:57;100275.66;;;29.23;36.55
32642;BME280;19323;56.072;9.698;2022-09-09T12:13:26;100274.00;;;29.22;36.88
32642;BME280;19323;56.072;9.698;2022-09-09T12:15:55;100270.66;;;29.20;36.70
32642;BME280;19323;56.072;9.698;2022-09-09T12:18:24;100277.34;;;29.24;36.63
32642;BME280;19323;56.072;9.698;2022-09-09T12:23:36;100279.00;;;29.25;36.41
32642;BME280;19323;56.072;9.698;2022-09-09T12:28:55;100266.56;;;29.24;36.95
32642;BME280;19323;56.072;9.698;2022-09-09T12:36:39;100272.19;;;29.29;36.89
32642;BME280;19323;56.072;9.698;2022-09-09T12:39:18;100273.03;;;29.30;36.88
32642;BME280;19323;56.072;9.698;2022-09-09T12:41:53;100267.78;;;29.22;36.81
32642;BME280;19323;56.072;9.698;2022-09-09T12:44:24;100271.19;;;29.30;36.95
32642;BME280;19323;56.072;9.698;2022-09-09T12:46:52;100274.53;;;29.32;36.93
32642;BME280;19323;56.072;9.698;2022-09-09T12:49:27;100275.34;;;29.33;37.00
32642;BME280;19323;56.072;9.698;2022-09-09T12:51:55;100275.16;;;29.34;36.90
32642;BME280;19323;56.072;9.698;2022-09-09T12:54:23;100276.81;;;29.35;36.92
32642;BME280;19323;56.072;9.698;2022-09-09T12:56:50;100280.34;;;29.36;36.95
32642;BME280;19323;56.072;9.698;2022-09-09T12:59:25;100276.16;;;29.33;37.04
32642;BME280;19323;56.072;9.698;2022-09-09T13:01:58;100282.03;;;29.37;37.01
32642;BME280;19323;56.072;9.698;2022-09-09T13:04:25;100275.78;;;29.36;37.04
32642;BME280;19323;56.072;9.698;2022-09-09T13:06:52;100272.06;;;29.37;36.85
32642;BME280;19323;56.072;9.698;2022-09-09T13:09:19;100273.72;;;29.38;37.09
32642;BME280;19323;56.072;9.698;2022-09-09T13:11:51;100270.19;;;29.38;37.03
32642;BME280;19323;56.072;9.698;2022-09-09T13:14:30;100263.72;;;29.32;36.91
32642;BME280;19323;56.072;9.698;2022-09-09T13:17:00;100265.84;;;29.37;36.99
32642;BME280;19323;56.072;9.698;2022-09-09T13:19:31;100271.66;;;29.41;36.92
32642;BME280;19323;56.072;9.698;2022-09-09T13:22:00;100273.53;;;29.40;36.99
32642;BME280;19323;56.072;9.698;2022-09-09T13:24:32;100270.81;;;29.40;37.02
32642;BME280;19323;56.072;9.698;2022-09-09T13:27:02;100273.34;;;29.42;36.89
32642;BME280;19323;56.072;9.698;2022-09-09T13:29:30;100278.72;;;29.42;37.00
32642;BME280;19323;56.072;9.698;2022-09-09T13:32:15;100274.16;;;29.42;37.12
32642;BME280;19323;56.072;9.698;2022-09-09T13:34:51;100265.06;;;29.43;37.02
32642;BME280;19323;56.072;9.698;2022-09-09T13:37:38;100259.66;;;29.43;36.93
32642;BME280;19323;56.072;9.698;2022-09-09T13:40:17;100262.91;;;29.38;36.99
32642;BME280;19323;56.072;9.698;2022-09-09T13:42:44;100272.28;;;29.43;36.74
32642;BME280;19323;56.072;9.698;2022-09-09T13:45:19;100283.72;;;29.45;36.98
32642;BME280;19323;56.072;9.698;2022-09-09T13:47:47;100278.53;;;29.43;37.06
32642;BME280;19323;56.072;9.698;2022-09-09T13:50:22;100281.03;;;29.45;36.88
32642;BME280;19323;56.072;9.698;2022-09-09T13:52:52;100281.84;;;29.45;37.02
32642;BME280;19323;56.072;9.698;2022-09-09T13:55:22;100281.84;;;29.45;37.11
32642;BME280;19323;56.072;9.698;2022-09-09T13:58:00;100288.09;;;29.46;36.94
32642;BME280;19323;56.072;9.698;2022-09-09T14:00:29;100280.19;;;29.44;37.15
32642;BME280;19323;56.072;9.698;2022-09-09T14:02:56;100292.66;;;29.45;37.20
32642;BME280;19323;56.072;9.698;2022-09-09T14:05:23;100274.94;;;29.36;37.23
32642;BME280;19323;56.072;9.698;2022-09-09T14:07:50;100288.09;;;29.46;37.37
32642;BME280;19323;56.072;9.698;2022-09-09T14:10:18;100290.81;;;29.46;37.17
32642;BME280;19323;56.072;9.698;2022-09-09T14:12:45;100292.66;;;29.45;37.10
32642;BME280;19323;56.072;9.698;2022-09-09T14:15:12;100285.34;;;29.39;37.31
32642;BME280;19323;56.072;9.698;2022-09-09T14:17:40;100287.84;;;29.41;37.04
32642;BME280;19323;56.072;9.698;2022-09-09T14:20:07;100291.00;;;29.44;37.45
32642;BME280;19323;56.072;9.698;2022-09-09T14:22:35;100275.41;;;29.40;37.40
32642;BME280;19323;56.072;9.698;2022-09-09T14:25:02;100274.13;;;29.35;37.60
32642;BME280;19323;56.072;9.698;2022-09-09T14:27:29;100287.25;;;29.45;37.41
32642;BME280;19323;56.072;9.698;2022-09-09T14:29:56;100288.28;;;29.44;37.27
32642;BME280;19323;56.072;9.698;2022-09-09T14:32:23;100292.47;;;29.47;37.62
32642;BME280;19323;56.072;9.698;2022-09-09T14:34:50;100286.63;;;29.43;37.46
32642;BME280;19323;56.072;9.698;2022-09-09T14:37:17;100279.09;;;29.38;37.37
32642;BME280;19323;56.072;9.698;2022-09-09T14:39:43;100184.69;;;28.82;37.55
32642;BME280;19323;56.072;9.698;2022-09-09T14:42:10;100290.41;;;29.49;37.66